createdAt,value
2017-03-11T00:00:38.857Z,22.7
2017-03-11T00:01:39.286Z,22.68
2017-03-11T00:02:39.302Z,22.61
2017-03-11T00:03:39.594Z,22.6
2017-03-11T00:04:38.973Z,22.64
2017-03-11T00:05:39.390Z,22.6
2017-03-11T00:06:39.046Z,22.65
2017-03-11T00:07:39.463Z,22.62
2017-03-11T00:08:39.347Z,22.64
2017-03-11T00:09:39.500Z,22.61
2017-03-11T00:10:38.729Z,22.58
2017-03-11T00:11:38.745Z,22.61
2017-03-11T00:12:39.191Z,22.61
2017-03-11T00:13:39.770Z,22.61
2017-03-11T00:14:39.640Z,22.52
2017-03-11T00:15:39.673Z,22.47
2017-03-11T00:16:39.293Z,22.51
2017-03-11T00:17:38.920Z,22.49
2017-03-11T00:18:39.598Z,22.49
2017-03-11T00:19:39.776Z,22.49
2017-03-11T00:20:39.820Z,22.52
2017-03-11T00:21:39.834Z,22.51
2017-03-11T00:22:39.457Z,22.45
2017-03-11T00:23:39.743Z,22.47
2017-03-11T00:24:39.108Z,22.46
2017-03-11T00:25:39.960Z,22.36
2017-03-11T00:26:39.580Z,22.45
2017-03-11T00:27:39.597Z,22.43
2017-03-11T00:28:40.289Z,22.36
2017-03-11T00:29:39.655Z,22.37
2017-03-11T00:30:40.072Z,22.43
2017-03-11T00:31:39.713Z,22.43
2017-03-11T00:32:39.738Z,22.42
2017-03-11T00:33:39.353Z,22.36
2017-03-11T00:34:40.184Z,22.3
2017-03-11T00:35:39.413Z,22.36
2017-03-11T00:36:39.444Z,22.39
2017-03-11T00:37:39.876Z,22.31
2017-03-11T00:38:39.910Z,22.36
2017-03-11T00:39:39.931Z,22.27
2017-03-11T00:40:39.960Z,22.21
2017-03-11T00:41:39.984Z,22.24
2017-03-11T00:42:40.009Z,22.27
2017-03-11T00:43:39.641Z,22.28
2017-03-11T00:44:40.075Z,22.35
2017-03-11T00:45:40.480Z,22.28
2017-03-11T00:46:40.521Z,22.24
2017-03-11T00:47:40.149Z,22.28
2017-03-11T00:48:40.181Z,22.24
2017-03-11T00:49:40.238Z,22.25
2017-03-11T00:50:40.230Z,22.21
2017-03-11T00:51:40.282Z,22.25
2017-03-11T00:52:39.884Z,22.3
2017-03-11T00:53:40.309Z,22.27
2017-03-11T00:54:40.345Z,22.2
2017-03-11T00:55:40.771Z,22.17
2017-03-11T00:56:40.790Z,22.15
2017-03-11T00:57:40.431Z,22.2
2017-03-11T00:58:40.447Z,22.14
2017-03-11T00:59:40.886Z,22.18
2017-03-11T01:00:40.910Z,22.06
2017-03-11T01:01:40.530Z,22.14
2017-03-11T01:02:40.156Z,22.21
2017-03-11T01:03:40.609Z,22.14
2017-03-11T01:04:41.037Z,22.09
2017-03-11T01:05:41.047Z,22.17
2017-03-11T01:06:41.071Z,22.07
2017-03-11T01:07:41.096Z,22.06
2017-03-11T01:08:41.132Z,22.07
2017-03-11T01:09:40.781Z,22.05
2017-03-11T01:10:41.183Z,22.1
2017-03-11T01:11:41.219Z,22.1
2017-03-11T01:12:41.248Z,22.07
2017-03-11T01:13:41.256Z,22.05
2017-03-11T01:14:41.297Z,22.12
2017-03-11T01:15:40.930Z,22.06
2017-03-11T01:16:40.958Z,22.05
2017-03-11T01:17:40.975Z,21.99
2017-03-11T01:18:41.403Z,21.99
2017-03-11T01:19:41.276Z,22.03
2017-03-11T01:20:40.657Z,22
2017-03-11T01:21:41.091Z,22.07
2017-03-11T01:22:41.515Z,22.06
2017-03-11T01:23:41.542Z,22.05
2017-03-11T01:24:41.425Z,22.06
2017-03-11T01:25:41.624Z,22.09
2017-03-11T01:26:41.618Z,22.03
2017-03-11T01:27:40.854Z,22.05
2017-03-11T01:28:41.683Z,22.09
2017-03-11T01:29:41.964Z,22.07
2017-03-11T01:30:40.917Z,22
2017-03-11T01:31:41.753Z,22.05
2017-03-11T01:32:41.787Z,22.06
2017-03-11T01:33:41.819Z,21.96
2017-03-11T01:34:41.685Z,21.9
2017-03-11T01:35:41.065Z,21.98
2017-03-11T01:36:41.889Z,22
2017-03-11T01:37:41.506Z,21.98
2017-03-11T01:38:41.965Z,21.92
2017-03-11T01:39:41.433Z,21.92
2017-03-11T01:40:41.996Z,21.9
2017-03-11T01:41:41.625Z,21.9
2017-03-11T01:42:42.054Z,21.84
2017-03-11T01:43:42.091Z,21.92
2017-03-11T01:44:42.378Z,21.98
2017-03-11T01:45:42.136Z,21.96
2017-03-11T01:46:42.173Z,21.98
2017-03-11T01:47:42.198Z,21.9
2017-03-11T01:48:42.215Z,21.96
2017-03-11T01:49:41.696Z,21.83
2017-03-11T01:50:41.872Z,21.96
2017-03-11T01:51:41.901Z,21.8
2017-03-11T01:52:41.934Z,21.94
2017-03-11T01:53:41.554Z,21.9
2017-03-11T01:54:42.623Z,21.9
2017-03-11T01:55:42.408Z,21.9
2017-03-11T01:56:42.037Z,21.86
2017-03-11T01:57:42.473Z,21.82
2017-03-11T01:58:42.086Z,21.77
2017-03-11T01:59:42.771Z,21.83
2017-03-11T02:00:42.584Z,21.92
2017-03-11T02:01:42.572Z,21.79
2017-03-11T02:02:42.197Z,21.79
2017-03-11T02:03:41.822Z,21.84
2017-03-11T02:04:42.903Z,21.8
2017-03-11T02:05:42.683Z,21.86
2017-03-11T02:06:41.896Z,21.88
2017-03-11T02:07:41.933Z,21.82
2017-03-11T02:08:42.761Z,21.83
2017-03-11T02:09:42.650Z,21.86
2017-03-11T02:10:42.439Z,21.82
2017-03-11T02:11:42.038Z,21.8
2017-03-11T02:12:42.867Z,21.82
2017-03-11T02:13:42.906Z,21.82
2017-03-11T02:14:42.790Z,21.88
2017-03-11T02:15:42.195Z,21.79
2017-03-11T02:16:42.603Z,21.72
2017-03-11T02:17:42.620Z,21.75
2017-03-11T02:18:42.657Z,21.74
2017-03-11T02:19:42.910Z,21.74
2017-03-11T02:20:42.682Z,21.77
2017-03-11T02:21:43.111Z,21.74
2017-03-11T02:22:43.134Z,21.79
2017-03-11T02:23:42.773Z,21.75
2017-03-11T02:24:43.054Z,21.77
2017-03-11T02:25:43.238Z,21.71
2017-03-11T02:26:42.451Z,21.77
2017-03-11T02:27:43.279Z,21.69
2017-03-11T02:28:42.900Z,21.72
2017-03-11T02:29:43.577Z,21.79
2017-03-11T02:30:42.970Z,21.74
2017-03-11T02:31:43.003Z,21.67
2017-03-11T02:32:43.020Z,21.74
2017-03-11T02:33:43.037Z,21.68
2017-03-11T02:34:43.333Z,21.65
2017-03-11T02:35:43.510Z,21.65
2017-03-11T02:36:43.122Z,21.71
2017-03-11T02:37:43.539Z,21.68
2017-03-11T02:38:43.192Z,21.68
2017-03-11T02:39:43.852Z,21.54
2017-03-11T02:40:43.253Z,21.64
2017-03-11T02:41:43.266Z,21.67
2017-03-11T02:42:43.675Z,21.71
2017-03-11T02:43:43.320Z,21.56
2017-03-11T02:44:43.584Z,21.64
2017-03-11T02:45:43.361Z,21.59
2017-03-11T02:46:43.819Z,21.64
2017-03-11T02:47:43.832Z,21.67
2017-03-11T02:48:43.851Z,21.59
2017-03-11T02:49:43.332Z,21.59
2017-03-11T02:50:43.105Z,21.56
2017-03-11T02:51:43.145Z,21.58
2017-03-11T02:52:43.943Z,21.62
2017-03-11T02:53:43.975Z,21.58
2017-03-11T02:54:44.255Z,21.62
2017-03-11T02:55:43.638Z,21.59
2017-03-11T02:56:43.258Z,21.54
2017-03-11T02:57:44.103Z,21.62
2017-03-11T02:58:44.115Z,21.59
2017-03-11T02:59:44.407Z,21.56
2017-03-11T03:00:44.173Z,21.52
2017-03-11T03:01:43.793Z,21.58
2017-03-11T03:02:43.826Z,21.58
2017-03-11T03:03:43.846Z,21.47
2017-03-11T03:04:43.472Z,21.52
2017-03-11T03:05:43.901Z,21.53
2017-03-11T03:06:43.941Z,21.53
2017-03-11T03:07:44.358Z,21.56
2017-03-11T03:08:44.387Z,21.53
2017-03-11T03:09:44.415Z,21.46
2017-03-11T03:10:44.449Z,21.53
2017-03-11T03:11:44.461Z,21.53
2017-03-11T03:12:44.090Z,21.47
2017-03-11T03:13:44.126Z,21.49
2017-03-11T03:14:43.747Z,21.5
2017-03-11T03:15:44.163Z,21.44
2017-03-11T03:16:44.243Z,21.5
2017-03-11T03:17:44.229Z,21.47
2017-03-11T03:18:44.262Z,21.54
2017-03-11T03:19:44.283Z,21.46
2017-03-11T03:20:43.908Z,21.43
2017-03-11T03:21:44.740Z,21.53
2017-03-11T03:22:44.765Z,21.44
2017-03-11T03:23:44.381Z,21.44
2017-03-11T03:24:44.410Z,21.47
2017-03-11T03:25:45.089Z,21.43
2017-03-11T03:26:44.479Z,21.5
2017-03-11T03:27:44.092Z,21.42
2017-03-11T03:28:44.517Z,21.5
2017-03-11T03:29:44.154Z,21.49
2017-03-11T03:30:45.246Z,21.47
2017-03-11T03:31:45.009Z,21.44
2017-03-11T03:32:45.040Z,21.44
2017-03-11T03:33:44.665Z,21.4
2017-03-11T03:34:44.681Z,21.42
2017-03-11T03:35:45.362Z,21.43
2017-03-11T03:36:45.136Z,21.38
2017-03-11T03:37:45.175Z,21.43
2017-03-11T03:38:44.800Z,21.42
2017-03-11T03:39:44.826Z,21.43
2017-03-11T03:40:45.099Z,21.37
2017-03-11T03:41:44.875Z,21.4
2017-03-11T03:42:45.300Z,21.4
2017-03-11T03:43:44.532Z,21.4
2017-03-11T03:44:44.945Z,21.44
2017-03-11T03:45:45.238Z,21.37
2017-03-11T03:46:45.009Z,21.4
2017-03-11T03:47:45.027Z,21.38
2017-03-11T03:48:44.668Z,21.4
2017-03-11T03:49:45.085Z,21.34
2017-03-11T03:50:44.733Z,21.38
2017-03-11T03:51:45.536Z,21.35
2017-03-11T03:52:45.572Z,21.35
2017-03-11T03:53:44.791Z,21.34
2017-03-11T03:54:45.621Z,21.37
2017-03-11T03:55:45.254Z,21.38
2017-03-11T03:56:44.867Z,21.38
2017-03-11T03:57:45.714Z,21.35
2017-03-11T03:58:44.944Z,21.35
2017-03-11T03:59:45.757Z,21.42
2017-03-11T04:00:45.781Z,21.32
2017-03-11T04:01:45.430Z,21.35
2017-03-11T04:02:45.063Z,21.38
2017-03-11T04:03:45.068Z,21.38
2017-03-11T04:04:45.908Z,21.34
2017-03-11T04:05:45.910Z,21.42
2017-03-11T04:06:45.580Z,21.37
2017-03-11T04:07:45.981Z,21.34
2017-03-11T04:08:45.595Z,21.37
2017-03-11T04:09:45.628Z,21.37
2017-03-11T04:10:45.649Z,21.42
2017-03-11T04:11:46.078Z,21.37
2017-03-11T04:12:46.111Z,21.32
2017-03-11T04:13:45.363Z,21.37
2017-03-11T04:14:45.760Z,21.32
2017-03-11T04:15:45.401Z,21.42
2017-03-11T04:16:45.814Z,21.31
2017-03-11T04:17:46.259Z,21.31
2017-03-11T04:18:45.879Z,21.37
2017-03-11T04:19:45.491Z,21.35
2017-03-11T04:20:46.313Z,21.37
2017-03-11T04:21:46.365Z,21.29
2017-03-11T04:22:45.594Z,21.38
2017-03-11T04:23:46.002Z,21.29
2017-03-11T04:24:46.035Z,21.28
2017-03-11T04:25:46.465Z,21.35
2017-03-11T04:26:46.084Z,21.4
2017-03-11T04:27:46.510Z,21.34
2017-03-11T04:28:46.135Z,21.29
2017-03-11T04:29:46.159Z,21.35
2017-03-11T04:30:45.792Z,21.24
2017-03-11T04:31:46.864Z,21.22
2017-03-11T04:32:46.254Z,21.22
2017-03-11T04:33:46.674Z,21.34
2017-03-11T04:34:46.691Z,21.27
2017-03-11T04:35:46.320Z,21.31
2017-03-11T04:36:47.001Z,21.25
2017-03-11T04:37:46.393Z,21.24
2017-03-11T04:38:46.413Z,21.35
2017-03-11T04:39:46.831Z,21.34
2017-03-11T04:40:46.860Z,21.22
2017-03-11T04:41:46.728Z,21.28
2017-03-11T04:42:46.108Z,21.28
2017-03-11T04:43:46.533Z,21.27
2017-03-11T04:44:46.559Z,21.27
2017-03-11T04:45:46.983Z,21.28
2017-03-11T04:46:47.264Z,21.27
2017-03-11T04:47:47.054Z,21.31
2017-03-11T04:48:46.282Z,21.25
2017-03-11T04:49:46.694Z,21.25
2017-03-11T04:50:47.123Z,21.21
2017-03-11T04:51:46.990Z,21.28
2017-03-11T04:52:46.776Z,21.29
2017-03-11T04:53:47.210Z,21.25
2017-03-11T04:54:46.834Z,21.28
2017-03-11T04:55:46.859Z,21.31
2017-03-11T04:56:46.736Z,21.28
2017-03-11T04:57:46.909Z,21.25
2017-03-11T04:58:46.938Z,21.31
2017-03-11T04:59:46.966Z,21.24
2017-03-11T05:00:46.990Z,21.27
2017-03-11T05:01:46.878Z,21.27
2017-03-11T05:02:47.452Z,21.22
2017-03-11T05:03:47.087Z,21.32
2017-03-11T05:04:46.719Z,21.29
2017-03-11T05:05:47.134Z,21.14
2017-03-11T05:06:47.803Z,21.19
2017-03-11T05:07:47.196Z,21.19
2017-03-11T05:08:47.612Z,21.14
2017-03-11T05:09:47.226Z,21.29
2017-03-11T05:10:47.669Z,21.22
2017-03-11T05:11:47.539Z,21.22
2017-03-11T05:12:47.719Z,21.16
2017-03-11T05:13:47.763Z,21.19
2017-03-11T05:14:46.993Z,21.22
2017-03-11T05:15:46.995Z,21.16
2017-03-11T05:16:48.091Z,21.22
2017-03-11T05:17:47.463Z,21.17
2017-03-11T05:18:47.880Z,21.19
2017-03-11T05:19:47.901Z,21.21
2017-03-11T05:20:47.926Z,21.29
2017-03-11T05:21:47.665Z,21.28
2017-03-11T05:22:47.987Z,21.16
2017-03-11T05:23:47.603Z,21.32
2017-03-11T05:24:48.040Z,21.34
2017-03-11T05:25:48.077Z,21.22
2017-03-11T05:26:47.945Z,21.28
2017-03-11T05:27:47.711Z,21.22
2017-03-11T05:28:47.727Z,21.34
2017-03-11T05:29:47.368Z,21.32
2017-03-11T05:30:48.201Z,21.28
2017-03-11T05:31:48.066Z,21.32
2017-03-11T05:32:47.846Z,21.35
2017-03-11T05:33:48.271Z,21.4
2017-03-11T05:34:48.304Z,21.37
2017-03-11T05:35:48.333Z,21.29
2017-03-11T05:36:47.807Z,21.35
2017-03-11T05:37:47.981Z,21.35
2017-03-11T05:38:48.005Z,21.43
2017-03-11T05:39:48.031Z,21.44
2017-03-11T05:40:48.049Z,21.44
2017-03-11T05:41:48.337Z,21.46
2017-03-11T05:42:48.118Z,21.5
2017-03-11T05:43:48.542Z,21.46
2017-03-11T05:44:47.779Z,21.49
2017-03-11T05:45:48.616Z,21.53
2017-03-11T05:46:48.468Z,21.58
2017-03-11T05:47:48.650Z,21.61
2017-03-11T05:48:48.686Z,21.58
2017-03-11T05:49:48.298Z,21.56
2017-03-11T05:50:48.343Z,21.59
2017-03-11T05:51:48.604Z,21.62
2017-03-11T05:52:47.986Z,21.58
2017-03-11T05:53:48.817Z,21.65
2017-03-11T05:54:48.070Z,21.68
2017-03-11T05:55:48.863Z,21.67
2017-03-11T05:56:49.149Z,21.67
2017-03-11T05:57:48.517Z,21.82
2017-03-11T05:58:48.536Z,21.69
2017-03-11T05:59:48.166Z,21.72
2017-03-11T06:00:49.000Z,21.82
2017-03-11T06:01:48.880Z,21.9
2017-03-11T06:02:48.260Z,21.82
2017-03-11T06:03:49.110Z,21.84
2017-03-11T06:04:49.122Z,21.82
2017-03-11T06:05:48.759Z,21.88
2017-03-11T06:06:49.420Z,21.86
2017-03-11T06:07:49.220Z,21.8
2017-03-11T06:08:48.815Z,21.96
2017-03-11T06:09:48.841Z,21.86
2017-03-11T06:10:49.251Z,21.92
2017-03-11T06:11:49.175Z,21.91
2017-03-11T06:12:49.320Z,21.9
2017-03-11T06:13:49.571Z,22
2017-03-11T06:14:49.605Z,22.07
2017-03-11T06:15:49.390Z,22.1
2017-03-11T06:16:49.274Z,22.14
2017-03-11T06:17:49.451Z,22.03
2017-03-11T06:18:49.069Z,22.05
2017-03-11T06:19:49.092Z,22.03
2017-03-11T06:20:49.542Z,22.09
2017-03-11T06:21:49.811Z,22.05
2017-03-11T06:22:49.208Z,22.05
2017-03-11T06:23:49.204Z,22.15
2017-03-11T06:24:49.639Z,22.12
2017-03-11T06:25:49.673Z,22.17
2017-03-11T06:26:49.960Z,22.14
2017-03-11T06:27:49.719Z,22.22
2017-03-11T06:28:49.406Z,22.2
2017-03-11T06:29:49.379Z,22.21
2017-03-11T06:30:49.801Z,22.22
2017-03-11T06:31:49.693Z,22.21
2017-03-11T06:32:49.459Z,22.3
2017-03-11T06:33:49.892Z,22.24
2017-03-11T06:34:49.528Z,22.25
2017-03-11T06:35:49.937Z,22.25
2017-03-11T06:36:50.221Z,22.4
2017-03-11T06:37:49.606Z,22.43
2017-03-11T06:38:49.631Z,22.36
2017-03-11T06:39:50.052Z,22.36
2017-03-11T06:40:50.074Z,22.39
2017-03-11T06:41:49.685Z,22.36
2017-03-11T06:42:49.759Z,22.37
2017-03-11T06:43:49.351Z,22.39
2017-03-11T06:44:49.388Z,22.4
2017-03-11T06:45:50.221Z,22.35
2017-03-11T06:46:50.234Z,22.43
2017-03-11T06:47:49.862Z,22.43
2017-03-11T06:48:50.287Z,22.42
2017-03-11T06:49:50.316Z,22.42
2017-03-11T06:50:49.553Z,22.51
2017-03-11T06:51:50.365Z,22.51
2017-03-11T06:52:50.403Z,22.55
2017-03-11T06:53:50.035Z,22.57
2017-03-11T06:54:50.453Z,22.47
2017-03-11T06:55:50.489Z,22.51
2017-03-11T06:56:50.101Z,22.47
2017-03-11T06:57:50.546Z,22.46
2017-03-11T06:58:50.575Z,22.46
2017-03-11T06:59:50.187Z,22.49
2017-03-11T07:00:50.218Z,22.45
2017-03-11T07:01:50.250Z,22.49
2017-03-11T07:02:49.873Z,22.49
2017-03-11T07:03:49.910Z,22.55
2017-03-11T07:04:50.324Z,22.49
2017-03-11T07:05:50.352Z,22.52
2017-03-11T07:06:50.372Z,22.49
2017-03-11T07:07:50.806Z,22.57
2017-03-11T07:08:50.442Z,22.58
2017-03-11T07:09:50.886Z,22.58
2017-03-11T07:10:50.529Z,22.61
2017-03-11T07:11:50.912Z,22.58
2017-03-11T07:12:50.936Z,22.62
2017-03-11T07:13:50.597Z,22.77
2017-03-11T07:14:50.994Z,23.13
2017-03-11T07:15:50.630Z,23.65
2017-03-11T07:16:50.680Z,24.09
2017-03-11T07:17:50.276Z,24.42
2017-03-11T07:18:51.102Z,24.76
2017-03-11T07:19:50.730Z,25.18
2017-03-11T07:20:50.366Z,25.51
2017-03-11T07:21:50.799Z,25.73
2017-03-11T07:22:51.228Z,26.07
2017-03-11T07:23:51.245Z,26.32
2017-03-11T07:24:50.880Z,26.51
2017-03-11T07:25:50.909Z,26.8
2017-03-11T07:26:51.326Z,27.09
2017-03-11T07:27:50.959Z,27.24
2017-03-11T07:28:50.996Z,27.41
2017-03-11T07:29:50.606Z,27.5
2017-03-11T07:30:51.041Z,27.75
2017-03-11T07:31:51.074Z,27.92
2017-03-11T07:32:51.098Z,27.97
2017-03-11T07:33:50.745Z,28.19
2017-03-11T07:34:51.571Z,28.21
2017-03-11T07:35:51.597Z,28.31
2017-03-11T07:36:51.213Z,28.36
2017-03-11T07:37:51.646Z,28.17
2017-03-11T07:38:51.702Z,27.84
2017-03-11T07:39:51.293Z,27.47
2017-03-11T07:40:50.924Z,27.29
2017-03-11T07:41:51.781Z,27.04
2017-03-11T07:42:51.394Z,26.81
2017-03-11T07:43:52.280Z,26.52
2017-03-11T07:44:51.849Z,26.39
2017-03-11T07:45:51.473Z,26.2
2017-03-11T07:46:51.513Z,26.06
2017-03-11T07:47:51.526Z,25.91
2017-03-11T07:48:51.973Z,25.9
2017-03-11T07:49:51.991Z,25.75
2017-03-11T07:50:51.613Z,25.52
2017-03-11T07:51:52.044Z,25.55
2017-03-11T07:52:52.173Z,25.42
2017-03-11T07:53:51.706Z,25.39
2017-03-11T07:54:51.731Z,25.33
2017-03-11T07:55:52.156Z,25.3
2017-03-11T07:56:52.216Z,25.13
2017-03-11T07:57:52.473Z,25.1
2017-03-11T07:58:51.845Z,25.02
2017-03-11T07:59:51.470Z,25
2017-03-11T08:00:52.329Z,24.85
2017-03-11T08:01:51.936Z,24.81
2017-03-11T08:02:52.624Z,24.71
2017-03-11T08:03:52.402Z,24.69
2017-03-11T08:04:51.630Z,24.61
2017-03-11T08:05:52.051Z,24.6
2017-03-11T08:06:52.071Z,24.49
2017-03-11T08:07:51.836Z,24.5
2017-03-11T08:08:52.530Z,24.37
2017-03-11T08:09:51.758Z,24.43
2017-03-11T08:10:52.206Z,24.4
2017-03-11T08:11:52.227Z,24.31
2017-03-11T08:12:52.752Z,24.27
2017-03-11T08:13:52.677Z,24.25
2017-03-11T08:14:52.289Z,24.28
2017-03-11T08:15:52.733Z,24.2
2017-03-11T08:16:51.980Z,24.1
2017-03-11T08:17:52.636Z,24.08
2017-03-11T08:18:52.817Z,24.12
2017-03-11T08:19:52.861Z,24.08
2017-03-11T08:20:52.882Z,24.08
2017-03-11T08:21:52.903Z,24.03
2017-03-11T08:22:52.756Z,23.95
2017-03-11T08:23:52.929Z,23.97
2017-03-11T08:24:52.566Z,23.98
2017-03-11T08:25:52.586Z,23.9
2017-03-11T08:26:53.007Z,23.97
2017-03-11T08:27:52.903Z,23.9
2017-03-11T08:28:53.068Z,23.84
2017-03-11T08:29:52.320Z,23.87
2017-03-11T08:30:52.728Z,23.88
2017-03-11T08:31:53.133Z,23.94
2017-03-11T08:32:52.639Z,23.87
2017-03-11T08:33:52.828Z,23.9
2017-03-11T08:34:53.253Z,23.87
2017-03-11T08:35:53.286Z,23.88
2017-03-11T08:36:53.305Z,23.91
2017-03-11T08:37:52.783Z,23.8
2017-03-11T08:38:52.548Z,23.76
2017-03-11T08:39:52.572Z,23.72
2017-03-11T08:40:52.621Z,23.72
2017-03-11T08:41:53.426Z,23.75
2017-03-11T08:42:52.914Z,23.76
2017-03-11T08:43:53.483Z,23.7
2017-03-11T08:44:53.113Z,23.73
2017-03-11T08:45:53.556Z,23.7
2017-03-11T08:46:52.784Z,23.69
2017-03-11T08:47:53.295Z,23.72
2017-03-11T08:48:53.223Z,23.75
2017-03-11T08:49:53.255Z,23.72
2017-03-11T08:50:57.178Z,23.76
2017-03-11T08:51:52.913Z,23.76
2017-03-11T08:52:53.518Z,23.91
2017-03-11T08:53:53.767Z,23.97
2017-03-11T08:54:53.812Z,24.25
2017-03-11T08:55:53.444Z,24.4
2017-03-11T08:56:53.470Z,24.64
2017-03-11T08:57:53.769Z,24.87
2017-03-11T08:58:53.502Z,25.17
2017-03-11T08:59:53.536Z,25.36
2017-03-11T09:00:53.580Z,25.47
2017-03-11T09:01:54.005Z,25.64
2017-03-11T09:02:53.485Z,25.88
2017-03-11T09:03:54.037Z,26.02
2017-03-11T09:04:53.283Z,26.05
2017-03-11T09:05:53.938Z,26.25
2017-03-11T09:06:53.732Z,26.37
2017-03-11T09:07:54.639Z,26.47
2017-03-11T09:08:53.386Z,26.54
2017-03-11T09:09:53.823Z,26.44
2017-03-11T09:10:54.258Z,26.47
2017-03-11T09:11:54.307Z,26.32
2017-03-11T09:12:54.168Z,26.25
2017-03-11T09:13:54.343Z,26.07
2017-03-11T09:14:53.979Z,25.91
2017-03-11T09:15:53.996Z,25.82
2017-03-11T09:16:53.639Z,25.64
2017-03-11T09:17:54.293Z,25.43
2017-03-11T09:18:54.480Z,25.35
2017-03-11T09:19:54.507Z,25.42
2017-03-11T09:20:54.531Z,25.18
2017-03-11T09:21:54.562Z,25.13
2017-03-11T09:22:54.449Z,25.08
2017-03-11T09:23:54.618Z,24.99
2017-03-11T09:24:53.846Z,24.87
2017-03-11T09:25:54.667Z,24.84
2017-03-11T09:26:54.305Z,24.84
2017-03-11T09:27:54.577Z,24.65
2017-03-11T09:28:54.759Z,24.49
2017-03-11T09:29:54.793Z,24.46
2017-03-11T09:30:54.038Z,24.47
2017-03-11T09:31:54.846Z,24.49
2017-03-11T09:32:54.327Z,24.39
2017-03-11T09:33:54.913Z,24.43
2017-03-11T09:34:54.163Z,24.31
2017-03-11T09:35:54.951Z,24.28
2017-03-11T09:36:54.983Z,24.31
2017-03-11T09:37:55.106Z,24.22
2017-03-11T09:38:55.264Z,24.18
2017-03-11T09:39:55.085Z,24.18
2017-03-11T09:40:55.102Z,24.06
2017-03-11T09:41:55.124Z,24.05
2017-03-11T09:42:55.403Z,24
2017-03-11T09:43:55.192Z,24.05
2017-03-11T09:44:55.221Z,23.94
2017-03-11T09:45:54.849Z,23.95
2017-03-11T09:46:54.907Z,24
2017-03-11T09:47:54.924Z,24.05
2017-03-11T09:48:54.944Z,23.94
2017-03-11T09:49:55.345Z,23.84
2017-03-11T09:50:55.380Z,23.88
2017-03-11T09:51:55.403Z,23.91
2017-03-11T09:52:55.434Z,23.9
2017-03-11T09:53:55.080Z,23.85
2017-03-11T09:54:55.096Z,23.79
2017-03-11T09:55:55.517Z,23.87
2017-03-11T09:56:55.569Z,23.98
2017-03-11T09:57:55.179Z,23.93
2017-03-11T09:58:55.204Z,23.93
2017-03-11T09:59:55.237Z,23.95
2017-03-11T10:00:55.665Z,23.94
2017-03-11T10:01:55.694Z,24
2017-03-11T10:02:55.314Z,24.05
2017-03-11T10:03:55.600Z,24.02
2017-03-11T10:04:55.376Z,24.09
2017-03-11T10:05:55.018Z,24.18
2017-03-11T10:06:55.422Z,24.09
2017-03-11T10:07:55.863Z,24.13
2017-03-11T10:08:56.136Z,24.27
2017-03-11T10:09:55.916Z,24.25
2017-03-11T10:10:55.554Z,24.3
2017-03-11T10:11:55.561Z,24.35
2017-03-11T10:12:55.619Z,24.39
2017-03-11T10:13:55.744Z,24.27
2017-03-11T10:14:55.652Z,24.4
2017-03-11T10:15:56.097Z,24.39
2017-03-11T10:16:55.711Z,24.32
2017-03-11T10:17:56.138Z,24.31
2017-03-11T10:18:56.026Z,24.4
2017-03-11T10:19:56.192Z,24.37
2017-03-11T10:20:56.325Z,24.46
2017-03-11T10:21:55.470Z,24.45
2017-03-11T10:22:56.275Z,24.39
2017-03-11T10:23:56.159Z,24.37
2017-03-11T10:24:55.936Z,24.43
2017-03-11T10:25:55.569Z,24.52
2017-03-11T10:26:55.590Z,24.52
2017-03-11T10:27:55.635Z,24.6
2017-03-11T10:28:56.304Z,24.55
2017-03-11T10:29:56.481Z,24.4
2017-03-11T10:30:56.502Z,24.39
2017-03-11T10:31:56.541Z,24.42
2017-03-11T10:32:56.571Z,24.43
2017-03-11T10:33:56.831Z,24.45
2017-03-11T10:34:56.615Z,24.4
2017-03-11T10:35:56.637Z,24.31
2017-03-11T10:36:56.274Z,24.34
2017-03-11T10:37:56.302Z,24.3
2017-03-11T10:38:56.886Z,24.3
2017-03-11T10:39:56.364Z,24.28
2017-03-11T10:40:56.804Z,24.24
2017-03-11T10:41:56.817Z,24.24
2017-03-11T10:42:56.842Z,24.13
2017-03-11T10:43:56.971Z,24.08
2017-03-11T10:44:56.900Z,24.09
2017-03-11T10:45:56.944Z,24.02
2017-03-11T10:46:56.565Z,23.97
2017-03-11T10:47:56.594Z,23.93
2017-03-11T10:48:56.896Z,23.93
2017-03-11T10:49:56.640Z,24
2017-03-11T10:50:56.669Z,23.97
2017-03-11T10:51:56.313Z,24.02
2017-03-11T10:52:57.130Z,24
2017-03-11T10:53:56.901Z,23.95
2017-03-11T10:54:57.184Z,24.03
2017-03-11T10:55:57.232Z,23.98
2017-03-11T10:56:57.249Z,23.95
2017-03-11T10:57:57.278Z,23.98
2017-03-11T10:58:57.155Z,23.97
2017-03-11T10:59:56.927Z,23.9
2017-03-11T11:00:56.960Z,23.93
2017-03-11T11:01:56.997Z,23.94
2017-03-11T11:02:57.015Z,24.02
2017-03-11T11:03:57.714Z,23.97
2017-03-11T11:04:57.460Z,23.98
2017-03-11T11:05:57.500Z,24
2017-03-11T11:06:57.524Z,24
2017-03-11T11:07:57.558Z,24.03
2017-03-11T11:08:57.434Z,24.05
2017-03-11T11:09:57.223Z,24.05
2017-03-11T11:10:57.627Z,24.06
2017-03-11T11:11:57.660Z,24.05
2017-03-11T11:12:57.688Z,24.03
2017-03-11T11:13:57.573Z,24.05
2017-03-11T11:14:57.359Z,24.09
2017-03-11T11:15:57.804Z,24.12
2017-03-11T11:16:57.065Z,24.18
2017-03-11T11:17:57.853Z,24.1
2017-03-11T11:18:58.110Z,24.15
2017-03-11T11:19:57.491Z,24.16
2017-03-11T11:20:57.924Z,24.25
2017-03-11T11:21:57.977Z,24.21
2017-03-11T11:22:57.590Z,24.22
2017-03-11T11:23:58.016Z,24.28
2017-03-11T11:24:57.655Z,24.2
2017-03-11T11:25:58.071Z,24.32
2017-03-11T11:26:57.717Z,24.32
2017-03-11T11:27:58.140Z,24.25
2017-03-11T11:28:58.404Z,24.35
2017-03-11T11:29:57.775Z,24.35
2017-03-11T11:30:58.424Z,24.35
2017-03-11T11:31:58.476Z,24.42
2017-03-11T11:32:57.472Z,24.45
2017-03-11T11:33:57.494Z,24.43
2017-03-11T11:34:57.935Z,24.47
2017-03-11T11:35:57.966Z,24.53
2017-03-11T11:36:57.980Z,24.5
2017-03-11T11:37:58.406Z,24.57
2017-03-11T11:38:58.268Z,24.47
2017-03-11T11:39:58.461Z,24.68
2017-03-11T11:40:58.518Z,24.57
2017-03-11T11:41:58.136Z,24.69
2017-03-11T11:42:58.969Z,24.68
2017-03-11T11:43:58.584Z,24.77
2017-03-11T11:44:58.607Z,24.9
2017-03-11T11:45:58.635Z,24.8
2017-03-11T11:46:58.672Z,24.93
2017-03-11T11:47:58.693Z,24.9
2017-03-11T11:48:58.738Z,24.91
2017-03-11T11:49:59.244Z,25.02
2017-03-11T11:50:58.387Z,24.99
2017-03-11T11:51:58.844Z,25.02
2017-03-11T11:52:59.077Z,25.05
2017-03-11T11:54:13.599Z,25.1
2017-03-11T11:54:59.059Z,25.08
2017-03-11T11:55:58.923Z,25.18
2017-03-11T11:56:58.172Z,25.2
2017-03-11T11:57:58.996Z,25.17
2017-03-11T11:58:58.228Z,25.32
2017-03-11T11:59:58.914Z,25.21
2017-03-11T12:00:58.686Z,25.33
2017-03-11T12:01:58.724Z,25.39
2017-03-11T12:02:58.744Z,25.51
2017-03-11T12:03:59.173Z,25.45
2017-03-11T12:04:59.303Z,25.51
2017-03-11T12:05:59.227Z,25.64
2017-03-11T12:06:58.848Z,25.79
2017-03-11T12:07:58.893Z,25.87
2017-03-11T12:08:59.305Z,25.99
2017-03-11T12:09:58.706Z,25.97
2017-03-11T12:10:58.983Z,26.13
2017-03-11T12:11:58.995Z,26.18
2017-03-11T12:12:58.664Z,26.3
2017-03-11T12:13:59.068Z,26.33
2017-03-11T12:14:59.963Z,26.4
2017-03-11T12:15:58.719Z,26.45
2017-03-11T12:16:59.379Z,26.55
2017-03-11T12:17:59.184Z,26.54
2017-03-11T12:18:59.217Z,26.67
2017-03-11T12:19:59.391Z,26.67
2017-03-11T12:20:59.282Z,26.73
2017-03-11T12:21:59.347Z,26.81
2017-03-11T12:22:59.340Z,26.82
2017-03-11T12:23:59.356Z,26.94
2017-03-11T12:25:00.038Z,26.99
2017-03-11T12:25:59.422Z,27.02
2017-03-11T12:26:59.051Z,27.06
2017-03-11T12:27:59.910Z,27.09
2017-03-11T12:28:59.912Z,27.21
2017-03-11T12:30:00.422Z,27.22
2017-03-11T12:30:59.962Z,27.19
2017-03-11T12:31:59.999Z,27.28
2017-03-11T12:32:59.631Z,27.25
2017-03-11T12:34:00.057Z,27.25
2017-03-11T12:35:00.253Z,27.28
2017-03-11T12:35:59.750Z,27.29
2017-03-11T12:36:59.766Z,27.29
2017-03-11T12:38:00.192Z,27.36
2017-03-11T12:38:59.852Z,27.34
2017-03-11T12:40:00.501Z,27.41
2017-03-11T12:41:00.294Z,27.37
2017-03-11T12:41:59.907Z,27.32
2017-03-11T12:43:00.347Z,27.39
2017-03-11T12:44:00.381Z,27.46
2017-03-11T12:44:59.853Z,27.29
2017-03-11T12:46:00.038Z,27.28
2017-03-11T12:47:00.455Z,27.28
2017-03-11T12:48:00.496Z,27.32
2017-03-11T12:48:59.736Z,27.31
2017-03-11T12:50:00.273Z,27.24
2017-03-11T12:51:00.586Z,27.21
2017-03-11T12:52:00.642Z,27.24
2017-03-11T12:53:00.876Z,27.27
2017-03-11T12:54:00.676Z,27.28
2017-03-11T12:55:00.957Z,27.24
2017-03-11T12:55:59.946Z,27.25
2017-03-11T12:57:00.764Z,27.25